sensor_id;sensor_type;location;lat;lon;timestamp;P1;durP1;ratioP1;P2;durP2;ratioP2
26774;SDS011;14362;51.902;7.626;2024-01-15T00:02:05;27.07;;;13.50;;
26774;SDS011;14362;51.902;7.626;2024-01-15T00:06:07;27.17;;;14.75;;
26774;SDS011;14362;51.902;7.626;2024-01-15T00:10:09;28.92;;;14.65;;
26774;SDS011;14362;51.902;7.626;2024-01-15T00:14:11;22.70;;;13.50;;
26774;SDS011;14362;51.902;7.626;2024-01-15T00:18:14;30.20;;;14.80;;
26774;SDS011;14362;51.902;7.626;2024-01-15T00:22:17;21.90;;;12.88;;
26774;SDS011;14362;51.902;7.626;2024-01-15T00:26:18;27.63;;;13.43;;
26774;SDS011;14362;51.902;7.626;2024-01-15T00:30:21;21.80;;;12.82;;
26774;SDS011;14362;51.902;7.626;2024-01-15T00:34:22;28.42;;;13.50;;
26774;SDS011;14362;51.902;7.626;2024-01-15T00:38:24;27.75;;;12.00;;
26774;SDS011;14362;51.902;7.626;2024-01-15T00:42:26;29.17;;;13.65;;
26774;SDS011;14362;51.902;7.626;2024-01-15T00:46:28;24.05;;;12.57;;
26774;SDS011;14362;51.902;7.626;2024-01-15T00:50:30;31.00;;;12.57;;
26774;SDS011;14362;51.902;7.626;2024-01-15T00:54:31;27.70;;;12.27;;
26774;SDS011;14362;51.902;7.626;2024-01-15T00:58:33;27.92;;;13.50;;
26774;SDS011;14362;51.902;7.626;2024-01-15T01:02:36;31.65;;;14.07;;
26774;SDS011;14362;51.902;7.626;2024-01-15T01:06:37;29.98;;;13.63;;
26774;SDS011;14362;51.902;7.626;2024-01-15T01:10:38;29.13;;;12.45;;
26774;SDS011;14362;51.902;7.626;2024-01-15T01:14:42;30.88;;;14.45;;
26774;SDS011;14362;51.902;7.626;2024-01-15T01:18:45;26.48;;;13.43;;
26774;SDS011;14362;51.902;7.626;2024-01-15T01:22:46;29.48;;;14.15;;
26774;SDS011;14362;51.902;7.626;2024-01-15T01:26:48;29.55;;;14.60;;
26774;SDS011;14362;51.902;7.626;2024-01-15T01:30:49;28.40;;;13.60;;
26774;SDS011;14362;51.902;7.626;2024-01-15T01:34:52;36.08;;;14.13;;
26774;SDS011;14362;51.902;7.626;2024-01-15T01:38:54;26.25;;;12.68;;
26774;SDS011;14362;51.902;7.626;2024-01-15T01:42:55;27.77;;;12.98;;
26774;SDS011;14362;51.902;7.626;2024-01-15T01:46:57;35.00;;;13.07;;
26774;SDS011;14362;51.902;7.626;2024-01-15T01:51:02;29.70;;;11.68;;
26774;SDS011;14362;51.902;7.626;2024-01-15T01:55:04;23.67;;;10.75;;
26774;SDS011;14362;51.902;7.626;2024-01-15T01:59:07;23.52;;;11.65;;
26774;SDS011;14362;51.902;7.626;2024-01-15T02:03:11;24.00;;;10.97;;
26774;SDS011;14362;51.902;7.626;2024-01-15T02:07:14;24.85;;;11.48;;
26774;SDS011;14362;51.902;7.626;2024-01-15T02:11:17;32.53;;;11.80;;
26774;SDS011;14362;51.902;7.626;2024-01-15T02:15:19;28.75;;;12.15;;
26774;SDS011;14362;51.902;7.626;2024-01-15T02:19:20;25.67;;;11.88;;
26774;SDS011;14362;51.902;7.626;2024-01-15T02:23:23;23.75;;;11.52;;
26774;SDS011;14362;51.902;7.626;2024-01-15T02:27:24;36.28;;;11.52;;
26774;SDS011;14362;51.902;7.626;2024-01-15T02:31:26;32.20;;;12.65;;
26774;SDS011;14362;51.902;7.626;2024-01-15T02:35:27;28.35;;;11.38;;
26774;SDS011;14362;51.902;7.626;2024-01-15T02:39:30;30.27;;;10.93;;
26774;SDS011;14362;51.902;7.626;2024-01-15T02:43:31;31.45;;;12.20;;
26774;SDS011;14362;51.902;7.626;2024-01-15T02:47:33;30.48;;;11.70;;
26774;SDS011;14362;51.902;7.626;2024-01-15T02:51:34;28.48;;;12.73;;
26774;SDS011;14362;51.902;7.626;2024-01-15T02:55:37;29.13;;;11.73;;
26774;SDS011;14362;51.902;7.626;2024-01-15T02:59:38;31.80;;;12.02;;
26774;SDS011;14362;51.902;7.626;2024-01-15T03:03:40;27.98;;;10.77;;
26774;SDS011;14362;51.902;7.626;2024-01-15T03:07:41;30.95;;;11.32;;
26774;SDS011;14362;51.902;7.626;2024-01-15T03:11:44;26.88;;;10.32;;
26774;SDS011;14362;51.902;7.626;2024-01-15T03:15:45;23.27;;;10.65;;
26774;SDS011;14362;51.902;7.626;2024-01-15T03:19:47;26.05;;;11.60;;
26774;SDS011;14362;51.902;7.626;2024-01-15T03:23:49;22.35;;;10.30;;
26774;SDS011;14362;51.902;7.626;2024-01-15T03:27:52;21.27;;;9.38;;
26774;SDS011;14362;51.902;7.626;2024-01-15T03:31:53;20.50;;;9.45;;
26774;SDS011;14362;51.902;7.626;2024-01-15T03:35:55;25.50;;;10.60;;
26774;SDS011;14362;51.902;7.626;2024-01-15T03:39:56;22.30;;;9.85;;
26774;SDS011;14362;51.902;7.626;2024-01-15T03:43:59;22.40;;;9.68;;
26774;SDS011;14362;51.902;7.626;2024-01-15T03:48:01;20.77;;;8.93;;
26774;SDS011;14362;51.902;7.626;2024-01-15T03:52:03;26.08;;;8.43;;
26774;SDS011;14362;51.902;7.626;2024-01-15T03:56:05;22.20;;;8.93;;
26774;SDS011;14362;51.902;7.626;2024-01-15T04:00:08;18.80;;;8.57;;
26774;SDS011;14362;51.902;7.626;2024-01-15T04:04:10;15.50;;;7.83;;
26774;SDS011;14362;51.902;7.626;2024-01-15T04:08:12;24.27;;;9.60;;
26774;SDS011;14362;51.902;7.626;2024-01-15T04:12:13;20.88;;;8.82;;
26774;SDS011;14362;51.902;7.626;2024-01-15T04:16:16;14.10;;;8.43;;
26774;SDS011;14362;51.902;7.626;2024-01-15T04:20:17;18.23;;;7.93;;
26774;SDS011;14362;51.902;7.626;2024-01-15T04:24:19;15.48;;;8.73;;
26774;SDS011;14362;51.902;7.626;2024-01-15T04:28:20;16.02;;;8.38;;
26774;SDS011;14362;51.902;7.626;2024-01-15T04:32:23;16.48;;;8.15;;
26774;SDS011;14362;51.902;7.626;2024-01-15T04:36:24;20.27;;;8.70;;
26774;SDS011;14362;51.902;7.626;2024-01-15T04:40:26;17.45;;;7.38;;
26774;SDS011;14362;51.902;7.626;2024-01-15T04:44:27;20.27;;;8.07;;
26774;SDS011;14362;51.902;7.626;2024-01-15T04:48:30;14.43;;;7.03;;
26774;SDS011;14362;51.902;7.626;2024-01-15T04:52:32;14.65;;;7.97;;
26774;SDS011;14362;51.902;7.626;2024-01-15T04:56:33;23.58;;;8.88;;
26774;SDS011;14362;51.902;7.626;2024-01-15T05:00:34;17.95;;;7.78;;
26774;SDS011;14362;51.902;7.626;2024-01-15T05:04:37;14.23;;;7.85;;
26774;SDS011;14362;51.902;7.626;2024-01-15T05:08:39;11.98;;;6.65;;
26774;SDS011;14362;51.902;7.626;2024-01-15T05:12:40;19.95;;;7.40;;
26774;SDS011;14362;51.902;7.626;2024-01-15T05:16:46;12.88;;;7.00;;
26774;SDS011;14362;51.902;7.626;2024-01-15T05:20:49;16.60;;;7.00;;
26774;SDS011;14362;51.902;7.626;2024-01-15T05:24:50;17.90;;;6.88;;
26774;SDS011;14362;51.902;7.626;2024-01-15T05:28:52;11.75;;;7.05;;
26774;SDS011;14362;51.902;7.626;2024-01-15T05:32:53;22.70;;;7.47;;
26774;SDS011;14362;51.902;7.626;2024-01-15T05:36:56;13.18;;;6.78;;
26774;SDS011;14362;51.902;7.626;2024-01-15T05:40:57;14.95;;;7.15;;
26774;SDS011;14362;51.902;7.626;2024-01-15T05:44:59;18.80;;;7.80;;
26774;SDS011;14362;51.902;7.626;2024-01-15T05:49:02;14.57;;;6.93;;
26774;SDS011;14362;51.902;7.626;2024-01-15T05:53:05;14.57;;;6.22;;
26774;SDS011;14362;51.902;7.626;2024-01-15T05:57:06;18.10;;;7.63;;
26774;SDS011;14362;51.902;7.626;2024-01-15T06:01:08;17.30;;;5.95;;
26774;SDS011;14362;51.902;7.626;2024-01-15T06:05:09;14.13;;;6.10;;
26774;SDS011;14362;51.902;7.626;2024-01-15T06:09:12;15.18;;;7.20;;
26774;SDS011;14362;51.902;7.626;2024-01-15T06:13:13;9.48;;;5.80;;
26774;SDS011;14362;51.902;7.626;2024-01-15T06:17:15;11.73;;;5.32;;
26774;SDS011;14362;51.902;7.626;2024-01-15T06:21:16;8.40;;;5.40;;
26774;SDS011;14362;51.902;7.626;2024-01-15T06:25:19;13.63;;;5.53;;
26774;SDS011;14362;51.902;7.626;2024-01-15T06:29:20;8.50;;;4.45;;
26774;SDS011;14362;51.902;7.626;2024-01-15T06:33:24;14.85;;;5.03;;
26774;SDS011;14362;51.902;7.626;2024-01-15T06:37:25;10.55;;;5.07;;
26774;SDS011;14362;51.902;7.626;2024-01-15T06:41:28;11.35;;;5.32;;
26774;SDS011;14362;51.902;7.626;2024-01-15T06:45:30;9.00;;;4.60;;
26774;SDS011;14362;51.902;7.626;2024-01-15T06:49:31;9.32;;;5.25;;
26774;SDS011;14362;51.902;7.626;2024-01-15T06:53:33;11.13;;;4.82;;
26774;SDS011;14362;51.902;7.626;2024-01-15T06:57:35;11.98;;;5.78;;
26774;SDS011;14362;51.902;7.626;2024-01-15T07:01:37;9.90;;;4.45;;
26774;SDS011;14362;51.902;7.626;2024-01-15T07:05:38;10.65;;;5.70;;
26774;SDS011;14362;51.902;7.626;2024-01-15T07:09:40;11.18;;;4.55;;
26774;SDS011;14362;51.902;7.626;2024-01-15T07:13:43;8.18;;;4.32;;
26774;SDS011;14362;51.902;7.626;2024-01-15T07:17:44;7.97;;;4.18;;
26774;SDS011;14362;51.902;7.626;2024-01-15T07:21:46;3.88;;;3.30;;
26774;SDS011;14362;51.902;7.626;2024-01-15T07:25:47;7.25;;;4.00;;
26774;SDS011;14362;51.902;7.626;2024-01-15T07:29:50;6.38;;;4.30;;
26774;SDS011;14362;51.902;7.626;2024-01-15T07:33:52;7.43;;;4.20;;
26774;SDS011;14362;51.902;7.626;2024-01-15T07:37:53;9.85;;;4.57;;
26774;SDS011;14362;51.902;7.626;2024-01-15T07:41:55;7.22;;;4.82;;
26774;SDS011;14362;51.902;7.626;2024-01-15T07:45:58;11.30;;;4.88;;
26774;SDS011;14362;51.902;7.626;2024-01-15T07:49:59;9.88;;;5.50;;
26774;SDS011;14362;51.902;7.626;2024-01-15T07:54:01;11.10;;;5.85;;
26774;SDS011;14362;51.902;7.626;2024-01-15T07:58:03;12.85;;;6.55;;
26774;SDS011;14362;51.902;7.626;2024-01-15T08:02:06;13.90;;;7.03;;
26774;SDS011;14362;51.902;7.626;2024-01-15T08:06:08;10.18;;;6.05;;
26774;SDS011;14362;51.902;7.626;2024-01-15T08:10:09;11.85;;;6.28;;
26774;SDS011;14362;51.902;7.626;2024-01-15T08:14:13;10.95;;;7.60;;
26774;SDS011;14362;51.902;7.626;2024-01-15T08:18:16;11.85;;;6.40;;
26774;SDS011;14362;51.902;7.626;2024-01-15T08:22:17;13.07;;;7.05;;
26774;SDS011;14362;51.902;7.626;2024-01-15T08:26:19;7.32;;;5.15;;
26774;SDS011;14362;51.902;7.626;2024-01-15T08:30:21;12.05;;;5.63;;
26774;SDS011;14362;51.902;7.626;2024-01-15T08:34:27;10.55;;;5.03;;
26774;SDS011;14362;51.902;7.626;2024-01-15T08:38:29;9.55;;;5.78;;
26774;SDS011;14362;51.902;7.626;2024-01-15T08:42:30;10.82;;;5.68;;
26774;SDS011;14362;51.902;7.626;2024-01-15T08:46:32;8.38;;;5.60;;
26774;SDS011;14362;51.902;7.626;2024-01-15T08:50:34;14.32;;;5.00;;
26774;SDS011;14362;51.902;7.626;2024-01-15T08:54:36;8.43;;;5.53;;
26774;SDS011;14362;51.902;7.626;2024-01-15T08:58:37;7.82;;;4.85;;
26774;SDS011;14362;51.902;7.626;2024-01-15T09:02:38;7.30;;;5.22;;
26774;SDS011;14362;51.902;7.626;2024-01-15T09:06:41;9.82;;;5.50;;
26774;SDS011;14362;51.902;7.626;2024-01-15T09:10:45;9.07;;;5.75;;
26774;SDS011;14362;51.902;7.626;2024-01-15T09:14:47;11.48;;;5.93;;
26774;SDS011;14362;51.902;7.626;2024-01-15T09:18:49;10.77;;;6.00;;
26774;SDS011;14362;51.902;7.626;2024-01-15T09:22:52;10.73;;;5.47;;
26774;SDS011;14362;51.902;7.626;2024-01-15T09:26:53;9.77;;;4.78;;
26774;SDS011;14362;51.902;7.626;2024-01-15T09:30:55;5.72;;;4.38;;
26774;SDS011;14362;51.902;7.626;2024-01-15T09:34:56;8.45;;;4.82;;
26774;SDS011;14362;51.902;7.626;2024-01-15T09:38:59;7.22;;;4.68;;
26774;SDS011;14362;51.902;7.626;2024-01-15T09:43:00;9.10;;;4.57;;
26774;SDS011;14362;51.902;7.626;2024-01-15T09:47:03;15.15;;;5.63;;
26774;SDS011;14362;51.902;7.626;2024-01-15T09:51:06;13.85;;;5.00;;
26774;SDS011;14362;51.902;7.626;2024-01-15T09:55:09;6.90;;;4.30;;
26774;SDS011;14362;51.902;7.626;2024-01-15T09:59:12;8.40;;;5.40;;
26774;SDS011;14362;51.902;7.626;2024-01-15T10:03:16;17.67;;;5.20;;
26774;SDS011;14362;51.902;7.626;2024-01-15T10:07:18;9.98;;;5.43;;
26774;SDS011;14362;51.902;7.626;2024-01-15T10:11:20;8.32;;;5.53;;
26774;SDS011;14362;51.902;7.626;2024-01-15T10:15:22;9.98;;;5.18;;
26774;SDS011;14362;51.902;7.626;2024-01-15T10:19:26;9.45;;;5.00;;
26774;SDS011;14362;51.902;7.626;2024-01-15T10:23:27;12.38;;;4.93;;
26774;SDS011;14362;51.902;7.626;2024-01-15T10:27:31;10.65;;;4.80;;
26774;SDS011;14362;51.902;7.626;2024-01-15T10:31:32;8.07;;;4.55;;
26774;SDS011;14362;51.902;7.626;2024-01-15T10:35:34;8.48;;;4.13;;
26774;SDS011;14362;51.902;7.626;2024-01-15T10:39:36;7.63;;;3.78;;
26774;SDS011;14362;51.902;7.626;2024-01-15T10:43:39;8.13;;;4.10;;
26774;SDS011;14362;51.902;7.626;2024-01-15T10:47:42;6.10;;;3.85;;
26774;SDS011;14362;51.902;7.626;2024-01-15T10:51:43;9.73;;;3.67;;
26774;SDS011;14362;51.902;7.626;2024-01-15T10:55:46;7.03;;;3.58;;
26774;SDS011;14362;51.902;7.626;2024-01-15T10:59:50;4.97;;;3.30;;
26774;SDS011;14362;51.902;7.626;2024-01-15T11:03:51;6.45;;;2.88;;
26774;SDS011;14362;51.902;7.626;2024-01-15T11:07:57;5.15;;;2.95;;
26774;SDS011;14362;51.902;7.626;2024-01-15T11:12:06;6.47;;;2.70;;
26774;SDS011;14362;51.902;7.626;2024-01-15T11:16:11;6.18;;;3.13;;
26774;SDS011;14362;51.902;7.626;2024-01-15T11:20:13;7.53;;;2.57;;
26774;SDS011;14362;51.902;7.626;2024-01-15T11:28:46;6.03;;;2.40;;
26774;SDS011;14362;51.902;7.626;2024-01-15T11:32:50;6.95;;;2.47;;
26774;SDS011;14362;51.902;7.626;2024-01-15T11:37:00;5.35;;;2.78;;
26774;SDS011;14362;51.902;7.626;2024-01-15T11:41:02;4.55;;;2.83;;
26774;SDS011;14362;51.902;7.626;2024-01-15T11:45:15;6.50;;;2.75;;
26774;SDS011;14362;51.902;7.626;2024-01-15T11:49:23;7.43;;;2.63;;
26774;SDS011;14362;51.902;7.626;2024-01-15T11:53:40;3.97;;;2.58;;
26774;SDS011;14362;51.902;7.626;2024-01-15T11:57:46;4.30;;;2.30;;
26774;SDS011;14362;51.902;7.626;2024-01-15T12:01:51;4.93;;;2.65;;
26774;SDS011;14362;51.902;7.626;2024-01-15T12:05:55;9.98;;;2.78;;
26774;SDS011;14362;51.902;7.626;2024-01-15T12:09:58;6.70;;;2.50;;
26774;SDS011;14362;51.902;7.626;2024-01-15T12:13:59;7.85;;;2.97;;
26774;SDS011;14362;51.902;7.626;2024-01-15T12:18:02;13.38;;;2.72;;
26774;SDS011;14362;51.902;7.626;2024-01-15T12:22:05;9.15;;;2.55;;
26774;SDS011;14362;51.902;7.626;2024-01-15T12:26:07;5.40;;;2.78;;
26774;SDS011;14362;51.902;7.626;2024-01-15T12:30:10;7.22;;;2.40;;
26774;SDS011;14362;51.902;7.626;2024-01-15T12:34:12;7.33;;;2.73;;
26774;SDS011;14362;51.902;7.626;2024-01-15T12:38:16;8.13;;;2.17;;
26774;SDS011;14362;51.902;7.626;2024-01-15T12:42:20;7.78;;;2.33;;
26774;SDS011;14362;51.902;7.626;2024-01-15T12:46:23;7.72;;;2.20;;
26774;SDS011;14362;51.902;7.626;2024-01-15T12:50:24;3.65;;;1.90;;
26774;SDS011;14362;51.902;7.626;2024-01-15T12:54:27;4.68;;;1.88;;
26774;SDS011;14362;51.902;7.626;2024-01-15T12:58:29;6.85;;;1.90;;
26774;SDS011;14362;51.902;7.626;2024-01-15T13:02:30;5.53;;;1.85;;
26774;SDS011;14362;51.902;7.626;2024-01-15T13:06:32;5.57;;;1.73;;
26774;SDS011;14362;51.902;7.626;2024-01-15T13:10:35;8.50;;;1.83;;
26774;SDS011;14362;51.902;7.626;2024-01-15T13:14:36;6.38;;;2.03;;
26774;SDS011;14362;51.902;7.626;2024-01-15T13:18:37;11.35;;;2.92;;
26774;SDS011;14362;51.902;7.626;2024-01-15T13:22:39;4.93;;;2.30;;
26774;SDS011;14362;51.902;7.626;2024-01-15T13:26:45;4.65;;;2.78;;
26774;SDS011;14362;51.902;7.626;2024-01-15T13:30:46;7.38;;;2.50;;
26774;SDS011;14362;51.902;7.626;2024-01-15T13:34:48;6.35;;;2.40;;
26774;SDS011;14362;51.902;7.626;2024-01-15T13:38:49;5.57;;;2.63;;
26774;SDS011;14362;51.902;7.626;2024-01-15T13:42:52;6.20;;;2.60;;
26774;SDS011;14362;51.902;7.626;2024-01-15T13:46:54;6.53;;;2.85;;
26774;SDS011;14362;51.902;7.626;2024-01-15T13:50:57;7.82;;;3.20;;
26774;SDS011;14362;51.902;7.626;2024-01-15T13:54:59;2.92;;;2.10;;
26774;SDS011;14362;51.902;7.626;2024-01-15T13:59:02;4.22;;;2.25;;
26774;SDS011;14362;51.902;7.626;2024-01-15T14:03:05;4.60;;;1.95;;
26774;SDS011;14362;51.902;7.626;2024-01-15T14:07:07;3.58;;;1.83;;
26774;SDS011;14362;51.902;7.626;2024-01-15T14:11:08;3.58;;;1.70;;
26774;SDS011;14362;51.902;7.626;2024-01-15T14:15:11;5.07;;;1.88;;
26774;SDS011;14362;51.902;7.626;2024-01-15T14:19:13;3.28;;;1.20;;
26774;SDS011;14362;51.902;7.626;2024-01-15T14:23:15;3.35;;;1.00;;
26774;SDS011;14362;51.902;7.626;2024-01-15T14:27:16;4.88;;;1.40;;
26774;SDS011;14362;51.902;7.626;2024-01-15T14:31:19;6.30;;;1.23;;
26774;SDS011;14362;51.902;7.626;2024-01-15T14:35:21;3.90;;;1.02;;
26774;SDS011;14362;51.902;7.626;2024-01-15T14:39:22;6.50;;;2.92;;
26774;SDS011;14362;51.902;7.626;2024-01-15T14:43:24;4.93;;;1.40;;
26774;SDS011;14362;51.902;7.626;2024-01-15T14:47:27;2.20;;;1.27;;
26774;SDS011;14362;51.902;7.626;2024-01-15T14:51:29;5.32;;;1.73;;
26774;SDS011;14362;51.902;7.626;2024-01-15T14:55:30;4.20;;;1.50;;
26774;SDS011;14362;51.902;7.626;2024-01-15T14:59:32;3.55;;;1.38;;
26774;SDS011;14362;51.902;7.626;2024-01-15T15:03:35;6.05;;;1.40;;
26774;SDS011;14362;51.902;7.626;2024-01-15T15:07:36;6.35;;;1.55;;
26774;SDS011;14362;51.902;7.626;2024-01-15T15:11:38;7.45;;;1.85;;
26774;SDS011;14362;51.902;7.626;2024-01-15T15:15:39;8.65;;;1.90;;
26774;SDS011;14362;51.902;7.626;2024-01-15T15:19:42;6.05;;;2.40;;
26774;SDS011;14362;51.902;7.626;2024-01-15T15:23:44;4.72;;;2.17;;
26774;SDS011;14362;51.902;7.626;2024-01-15T15:27:46;11.73;;;2.22;;
26774;SDS011;14362;51.902;7.626;2024-01-15T15:31:48;7.20;;;1.65;;
26774;SDS011;14362;51.902;7.626;2024-01-15T15:35:51;7.95;;;1.88;;
26774;SDS011;14362;51.902;7.626;2024-01-15T15:39:52;6.55;;;2.30;;
26774;SDS011;14362;51.902;7.626;2024-01-15T15:43:54;2.78;;;1.40;;
26774;SDS011;14362;51.902;7.626;2024-01-15T15:47:55;3.30;;;1.80;;
26774;SDS011;14362;51.902;7.626;2024-01-15T15:51:58;5.80;;;2.10;;
26774;SDS011;14362;51.902;7.626;2024-01-15T15:55:59;4.95;;;2.13;;
26774;SDS011;14362;51.902;7.626;2024-01-15T16:00:01;6.22;;;2.10;;
26774;SDS011;14362;51.902;7.626;2024-01-15T16:04:02;6.07;;;1.73;;
26774;SDS011;14362;51.902;7.626;2024-01-15T16:08:06;8.63;;;2.13;;
26774;SDS011;14362;51.902;7.626;2024-01-15T16:12:07;7.30;;;1.60;;
26774;SDS011;14362;51.902;7.626;2024-01-15T16:16:09;9.48;;;1.23;;
26774;SDS011;14362;51.902;7.626;2024-01-15T16:20:10;6.05;;;1.98;;
26774;SDS011;14362;51.902;7.626;2024-01-15T16:24:13;10.07;;;2.08;;
26774;SDS011;14362;51.902;7.626;2024-01-15T16:28:15;11.70;;;1.85;;
26774;SDS011;14362;51.902;7.626;2024-01-15T16:32:16;5.00;;;1.70;;
26774;SDS011;14362;51.902;7.626;2024-01-15T16:36:17;5.97;;;1.52;;
26774;SDS011;14362;51.902;7.626;2024-01-15T16:40:22;8.10;;;1.80;;
26774;SDS011;14362;51.902;7.626;2024-01-15T16:44:23;3.88;;;1.63;;
26774;SDS011;14362;51.902;7.626;2024-01-15T16:48:25;5.47;;;1.40;;
26774;SDS011;14362;51.902;7.626;2024-01-15T16:52:26;3.85;;;1.65;;
26774;SDS011;14362;51.902;7.626;2024-01-15T16:56:29;4.75;;;2.00;;
26774;SDS011;14362;51.902;7.626;2024-01-15T17:00:30;7.03;;;2.45;;
26774;SDS011;14362;51.902;7.626;2024-01-15T17:04:32;5.80;;;1.92;;
26774;SDS011;14362;51.902;7.626;2024-01-15T17:08:33;10.38;;;1.90;;
26774;SDS011;14362;51.902;7.626;2024-01-15T17:12:36;3.92;;;1.77;;
26774;SDS011;14362;51.902;7.626;2024-01-15T17:16:38;10.93;;;1.83;;
26774;SDS011;14362;51.902;7.626;2024-01-15T17:20:39;10.60;;;2.22;;
26774;SDS011;14362;51.902;7.626;2024-01-15T17:24:44;9.00;;;3.17;;
26774;SDS011;14362;51.902;7.626;2024-01-15T17:28:47;14.70;;;2.35;;
26774;SDS011;14362;51.902;7.626;2024-01-15T17:32:48;13.63;;;1.80;;
26774;SDS011;14362;51.902;7.626;2024-01-15T17:36:52;11.48;;;2.38;;
26774;SDS011;14362;51.902;7.626;2024-01-15T17:40:54;9.23;;;2.33;;
26774;SDS011;14362;51.902;7.626;2024-01-15T17:44:56;10.15;;;2.65;;
26774;SDS011;14362;51.902;7.626;2024-01-15T17:48:58;5.38;;;3.13;;
26774;SDS011;14362;51.902;7.626;2024-01-15T17:57:04;8.73;;;3.72;;
26774;SDS011;14362;51.902;7.626;2024-01-15T18:01:07;9.25;;;3.90;;
26774;SDS011;14362;51.902;7.626;2024-01-15T18:05:09;8.82;;;4.05;;
26774;SDS011;14362;51.902;7.626;2024-01-15T18:09:10;17.83;;;5.20;;
26774;SDS011;14362;51.902;7.626;2024-01-15T18:13:12;6.95;;;4.78;;
26774;SDS011;14362;51.902;7.626;2024-01-15T18:17:14;14.38;;;4.82;;
26774;SDS011;14362;51.902;7.626;2024-01-15T18:21:17;9.23;;;4.07;;
26774;SDS011;14362;51.902;7.626;2024-01-15T18:25:19;11.80;;;3.97;;
26774;SDS011;14362;51.902;7.626;2024-01-15T18:29:20;10.27;;;4.15;;
26774;SDS011;14362;51.902;7.626;2024-01-15T18:33:25;9.60;;;3.25;;
26774;SDS011;14362;51.902;7.626;2024-01-15T18:37:26;10.50;;;4.22;;
26774;SDS011;14362;51.902;7.626;2024-01-15T18:41:28;8.27;;;3.35;;
26774;SDS011;14362;51.902;7.626;2024-01-15T18:45:29;3.03;;;2.20;;
26774;SDS011;14362;51.902;7.626;2024-01-15T18:49:32;4.68;;;2.40;;
26774;SDS011;14362;51.902;7.626;2024-01-15T18:53:34;4.03;;;2.22;;
26774;SDS011;14362;51.902;7.626;2024-01-15T18:57:35;8.55;;;2.67;;
26774;SDS011;14362;51.902;7.626;2024-01-15T19:01:37;14.40;;;2.20;;
26774;SDS011;14362;51.902;7.626;2024-01-15T19:05:41;3.83;;;1.75;;
26774;SDS011;14362;51.902;7.626;2024-01-15T19:09:43;4.80;;;2.42;;
26774;SDS011;14362;51.902;7.626;2024-01-15T19:13:44;5.60;;;2.22;;
26774;SDS011;14362;51.902;7.626;2024-01-15T19:17:46;4.70;;;1.50;;
26774;SDS011;14362;51.902;7.626;2024-01-15T19:21:50;2.90;;;1.88;;
26774;SDS011;14362;51.902;7.626;2024-01-15T19:25:52;5.07;;;2.05;;
26774;SDS011;14362;51.902;7.626;2024-01-15T19:29:53;3.42;;;1.50;;
26774;SDS011;14362;51.902;7.626;2024-01-15T19:33:55;4.72;;;1.85;;
26774;SDS011;14362;51.902;7.626;2024-01-15T19:37:58;4.93;;;1.92;;
26774;SDS011;14362;51.902;7.626;2024-01-15T19:41:59;6.85;;;2.15;;
26774;SDS011;14362;51.902;7.626;2024-01-15T19:46:03;6.00;;;2.35;;
26774;SDS011;14362;51.902;7.626;2024-01-15T19:50:05;6.57;;;2.08;;
26774;SDS011;14362;51.902;7.626;2024-01-15T19:54:08;4.60;;;1.60;;
26774;SDS011;14362;51.902;7.626;2024-01-15T19:58:10;4.82;;;1.80;;
26774;SDS011;14362;51.902;7.626;2024-01-15T20:02:13;3.15;;;1.55;;
26774;SDS011;14362;51.902;7.626;2024-01-15T20:06:14;6.18;;;1.85;;
26774;SDS011;14362;51.902;7.626;2024-01-15T20:10:18;3.85;;;1.63;;
26774;SDS011;14362;51.902;7.626;2024-01-15T20:14:20;4.50;;;1.50;;
26774;SDS011;14362;51.902;7.626;2024-01-15T20:18:24;3.78;;;1.55;;
26774;SDS011;14362;51.902;7.626;2024-01-15T20:22:26;3.35;;;1.55;;
26774;SDS011;14362;51.902;7.626;2024-01-15T20:26:28;4.25;;;1.55;;
26774;SDS011;14362;51.902;7.626;2024-01-15T20:30:30;6.10;;;1.52;;
26774;SDS011;14362;51.902;7.626;2024-01-15T20:34:31;6.35;;;1.55;;
26774;SDS011;14362;51.902;7.626;2024-01-15T20:38:33;11.95;;;2.55;;
26774;SDS011;14362;51.902;7.626;2024-01-15T20:42:36;5.35;;;1.83;;
26774;SDS011;14362;51.902;7.626;2024-01-15T20:46:39;4.93;;;1.65;;
26774;SDS011;14362;51.902;7.626;2024-01-15T20:50:40;8.20;;;1.70;;
26774;SDS011;14362;51.902;7.626;2024-01-15T20:54:42;5.47;;;2.00;;
26774;SDS011;14362;51.902;7.626;2024-01-15T20:58:45;7.90;;;2.00;;
26774;SDS011;14362;51.902;7.626;2024-01-15T21:02:46;5.45;;;1.88;;
26774;SDS011;14362;51.902;7.626;2024-01-15T21:06:48;7.93;;;2.47;;
26774;SDS011;14362;51.902;7.626;2024-01-15T21:10:50;7.93;;;2.65;;
26774;SDS011;14362;51.902;7.626;2024-01-15T21:14:53;7.60;;;1.92;;
26774;SDS011;14362;51.902;7.626;2024-01-15T21:18:55;6.43;;;2.55;;
26774;SDS011;14362;51.902;7.626;2024-01-15T21:22:57;4.88;;;2.10;;
26774;SDS011;14362;51.902;7.626;2024-01-15T21:26:59;8.38;;;2.58;;
26774;SDS011;14362;51.902;7.626;2024-01-15T21:31:02;8.63;;;2.40;;
26774;SDS011;14362;51.902;7.626;2024-01-15T21:35:04;8.38;;;2.35;;
26774;SDS011;14362;51.902;7.626;2024-01-15T21:39:05;5.15;;;1.83;;
26774;SDS011;14362;51.902;7.626;2024-01-15T21:43:07;7.47;;;2.22;;
26774;SDS011;14362;51.902;7.626;2024-01-15T21:47:10;9.75;;;2.20;;
26774;SDS011;14362;51.902;7.626;2024-01-15T21:51:11;8.15;;;2.55;;
26774;SDS011;14362;51.902;7.626;2024-01-15T21:55:13;6.75;;;2.05;;
26774;SDS011;14362;51.902;7.626;2024-01-15T21:59:17;9.30;;;2.75;;
26774;SDS011;14362;51.902;7.626;2024-01-15T22:03:20;10.23;;;2.95;;
26774;SDS011;14362;51.902;7.626;2024-01-15T22:07:22;6.45;;;2.38;;
26774;SDS011;14362;51.902;7.626;2024-01-15T22:11:23;10.88;;;2.97;;
26774;SDS011;14362;51.902;7.626;2024-01-15T22:15:25;11.13;;;2.53;;
26774;SDS011;14362;51.902;7.626;2024-01-15T22:19:27;10.60;;;3.00;;
26774;SDS011;14362;51.902;7.626;2024-01-15T22:23:29;8.73;;;2.70;;
26774;SDS011;14362;51.902;7.626;2024-01-15T22:27:30;7.43;;;2.45;;
26774;SDS011;14362;51.902;7.626;2024-01-15T22:31:32;6.28;;;1.98;;
26774;SDS011;14362;51.902;7.626;2024-01-15T22:35:35;6.20;;;2.30;;
26774;SDS011;14362;51.902;7.626;2024-01-15T22:39:36;7.30;;;3.00;;
26774;SDS011;14362;51.902;7.626;2024-01-15T22:43:38;6.28;;;2.85;;
26774;SDS011;14362;51.902;7.626;2024-01-15T22:47:39;11.57;;;3.15;;
26774;SDS011;14362;51.902;7.626;2024-01-15T22:51:42;9.68;;;2.90;;
26774;SDS011;14362;51.902;7.626;2024-01-15T22:55:43;10.40;;;3.35;;
26774;SDS011;14362;51.902;7.626;2024-01-15T22:59:45;9.93;;;3.78;;
26774;SDS011;14362;51.902;7.626;2024-01-15T23:03:46;5.93;;;3.08;;
26774;SDS011;14362;51.902;7.626;2024-01-15T23:07:49;9.88;;;3.67;;
26774;SDS011;14362;51.902;7.626;2024-01-15T23:11:52;9.35;;;3.63;;
26774;SDS011;14362;51.902;7.626;2024-01-15T23:15:53;16.20;;;4.38;;
26774;SDS011;14362;51.902;7.626;2024-01-15T23:19:54;10.65;;;4.35;;
26774;SDS011;14362;51.902;7.626;2024-01-15T23:23:57;9.43;;;4.40;;
26774;SDS011;14362;51.902;7.626;2024-01-15T23:27:58;12.40;;;4.57;;
26774;SDS011;14362;51.902;7.626;2024-01-15T23:32:00;11.80;;;6.40;;
26774;SDS011;14362;51.902;7.626;2024-01-15T23:36:01;10.68;;;4.68;;
26774;SDS011;14362;51.902;7.626;2024-01-15T23:40:07;15.60;;;5.00;;
26774;SDS011;14362;51.902;7.626;2024-01-15T23:44:09;11.23;;;4.83;;
26774;SDS011;14362;51.902;7.626;2024-01-15T23:48:10;12.85;;;5.05;;
26774;SDS011;14362;51.902;7.626;2024-01-15T23:52:12;13.98;;;5.30;;
26774;SDS011;14362;51.902;7.626;2024-01-15T23:56:15;15.57;;;5.13;;
